createdAt,value
2019-04-29T00:00:23.966Z,11.17
2019-04-29T00:02:57.846Z,10.63
2019-04-29T00:05:32.249Z,11.60
2019-04-29T00:08:06.043Z,11.10
2019-04-29T00:10:39.891Z,12.07
2019-04-29T00:13:14.277Z,11.47
2019-04-29T00:15:48.263Z,12.17
2019-04-29T00:18:21.729Z,11.50
2019-04-29T00:20:55.615Z,10.77
2019-04-29T00:23:29.355Z,10.58
2019-04-29T00:26:03.239Z,10.97
2019-04-29T00:28:37.429Z,11.10
2019-04-29T00:31:11.139Z,10.40
2019-04-29T00:33:44.916Z,10.13
2019-04-29T00:36:19.968Z,11.10
2019-04-29T00:38:53.771Z,10.47
2019-04-29T00:41:27.498Z,11.03
2019-04-29T00:44:01.386Z,10.40
2019-04-29T00:46:35.082Z,10.70
2019-04-29T00:49:10.479Z,11.00
2019-04-29T00:51:44.168Z,11.20
2019-04-29T00:54:17.919Z,10.93
2019-04-29T00:56:51.805Z,11.70
2019-04-29T00:59:25.245Z,11.70
2019-04-29T01:02:00.932Z,11.23
2019-04-29T01:04:34.619Z,11.30
2019-04-29T01:07:08.841Z,12.37
2019-04-29T01:09:42.792Z,13.10
2019-04-29T01:12:17.299Z,13.80
2019-04-29T01:14:52.870Z,12.77
2019-04-29T01:17:26.605Z,13.40
2019-04-29T01:20:00.578Z,12.20
2019-04-29T01:22:34.950Z,13.03
2019-04-29T01:25:09.630Z,12.03
2019-04-29T01:27:44.096Z,12.20
2019-04-29T01:30:38.307Z,12.50
2019-04-29T01:33:12.601Z,11.33
2019-04-29T01:35:46.825Z,10.77
2019-04-29T01:38:20.435Z,11.17
2019-04-29T01:40:54.471Z,10.00
2019-04-29T01:43:28.445Z,10.10
2019-04-29T01:46:03.818Z,10.73
2019-04-29T01:48:37.480Z,10.63
2019-04-29T01:51:11.487Z,11.10
2019-04-29T01:53:45.397Z,11.30
2019-04-29T01:56:19.270Z,11.27
2019-04-29T01:58:53.164Z,10.72
2019-04-29T02:01:29.894Z,10.13
2019-04-29T02:04:04.492Z,11.30
2019-04-29T02:06:40.623Z,11.57
2019-04-29T02:09:16.878Z,11.30
2019-04-29T02:11:51.574Z,11.00
2019-04-29T02:14:25.382Z,11.37
2019-04-29T02:17:00.685Z,10.67
2019-04-29T02:19:34.422Z,10.50
2019-04-29T02:22:08.168Z,10.88
2019-04-29T02:24:41.924Z,10.97
2019-04-29T02:27:15.790Z,10.40
2019-04-29T02:29:50.692Z,10.30
2019-04-29T02:32:24.526Z,10.33
2019-04-29T02:34:58.319Z,10.23
2019-04-29T02:37:31.761Z,10.17
2019-04-29T02:40:06.551Z,9.68
2019-04-29T02:42:40.849Z,10.10
2019-04-29T02:45:14.933Z,11.17
2019-04-29T02:47:49.065Z,10.03
2019-04-29T02:50:24.375Z,10.15
2019-04-29T02:52:58.021Z,10.37
2019-04-29T02:55:32.684Z,9.55
2019-04-29T02:58:06.836Z,10.47
2019-04-29T03:00:41.042Z,10.13
2019-04-29T03:03:16.608Z,9.73
2019-04-29T03:05:50.369Z,9.90
2019-04-29T03:08:26.274Z,9.77
2019-04-29T03:11:25.547Z,10.50
2019-04-29T03:14:02.202Z,10.13
2019-04-29T03:16:44.268Z,9.93
2019-04-29T03:19:32.027Z,10.47
2019-04-29T03:22:07.035Z,11.30
2019-04-29T03:24:40.954Z,9.97
2019-04-29T03:27:14.719Z,10.20
2019-04-29T03:29:48.577Z,10.17
2019-04-29T03:32:23.774Z,10.47
2019-04-29T03:34:58.002Z,10.23
2019-04-29T03:37:32.228Z,9.73
2019-04-29T03:40:06.705Z,9.67
2019-04-29T03:42:41.558Z,10.63
2019-04-29T03:45:15.941Z,9.60
2019-04-29T03:47:49.573Z,9.50
2019-04-29T03:50:23.614Z,8.97
2019-04-29T03:52:57.519Z,8.75
2019-04-29T03:55:39.947Z,8.63
2019-04-29T03:58:06.286Z,9.00
2019-04-29T04:00:43.897Z,9.10
2019-04-29T04:03:15.624Z,9.65
2019-04-29T04:05:50.240Z,8.90
2019-04-29T04:08:24.980Z,9.43
2019-04-29T04:10:59.497Z,8.37
2019-04-29T04:13:36.511Z,7.80
2019-04-29T04:16:12.735Z,7.83
2019-04-29T04:18:47.957Z,7.95
2019-04-29T04:21:22.863Z,7.50
2019-04-29T04:23:58.250Z,7.57
2019-04-29T04:26:32.784Z,7.80
2019-04-29T04:29:06.865Z,7.40
2019-04-29T04:31:47.695Z,7.07
2019-04-29T04:34:24.783Z,6.90
2019-04-29T04:37:00.323Z,8.37
2019-04-29T04:39:35.322Z,7.80
2019-04-29T04:42:18.770Z,7.33
2019-04-29T04:44:53.542Z,6.93
2019-04-29T04:47:29.168Z,7.08
2019-04-29T04:50:02.904Z,6.65
2019-04-29T04:52:36.823Z,6.27
2019-04-29T04:55:11.888Z,6.20
2019-04-29T04:57:45.620Z,6.97
2019-04-29T05:00:20.890Z,6.50
2019-04-29T05:02:54.944Z,6.17
2019-04-29T05:05:28.435Z,6.37
2019-04-29T05:08:02.666Z,6.93
2019-04-29T05:10:37.813Z,6.43
2019-04-29T05:13:11.687Z,6.35
2019-04-29T05:15:45.935Z,6.90
2019-04-29T05:18:26.912Z,6.03
2019-04-29T05:21:00.623Z,6.73
2019-04-29T05:23:34.302Z,7.08
2019-04-29T05:26:08.259Z,7.10
2019-04-29T05:28:42.647Z,7.25
2019-04-29T05:31:16.378Z,6.93
2019-04-29T05:33:51.285Z,6.60
2019-04-29T05:36:26.473Z,6.47
2019-04-29T05:39:00.222Z,6.80
2019-04-29T05:41:34.864Z,5.77
2019-04-29T05:44:08.856Z,6.37
2019-04-29T05:46:42.617Z,5.87
2019-04-29T05:49:16.744Z,5.60
2019-04-29T05:51:52.257Z,6.53
2019-04-29T05:54:26.928Z,6.10
2019-04-29T05:57:01.374Z,6.37
2019-04-29T05:59:35.860Z,5.90
2019-04-29T06:02:09.665Z,6.30
2019-04-29T06:04:44.111Z,6.75
2019-04-29T06:07:21.514Z,6.03
2019-04-29T06:09:52.703Z,6.27
2019-04-29T06:12:26.987Z,7.37
2019-04-29T06:15:00.609Z,6.70
2019-04-29T06:17:34.674Z,6.60
2019-04-29T06:20:13.059Z,6.57
2019-04-29T06:22:44.254Z,6.03
2019-04-29T06:25:18.515Z,6.50
2019-04-29T06:27:52.256Z,6.53
2019-04-29T06:30:27.565Z,6.03
2019-04-29T06:33:01.702Z,6.43
2019-04-29T06:35:35.442Z,6.20
2019-04-29T06:38:10.996Z,6.27
2019-04-29T06:40:45.066Z,5.93
2019-04-29T06:43:24.388Z,6.30
2019-04-29T06:45:55.636Z,5.47
2019-04-29T06:48:29.365Z,5.97
2019-04-29T06:51:05.432Z,5.85
2019-04-29T06:53:39.031Z,5.63
2019-04-29T06:56:12.904Z,5.47
2019-04-29T06:58:48.971Z,4.90
2019-04-29T07:01:22.926Z,6.00
2019-04-29T07:04:15.366Z,5.30
2019-04-29T07:06:57.082Z,8.57
2019-04-29T07:09:24.469Z,15.67
2019-04-29T07:12:01.623Z,19.23
2019-04-29T07:14:38.525Z,20.27
2019-04-29T07:17:12.268Z,20.50
2019-04-29T07:19:47.823Z,19.23
2019-04-29T07:22:25.775Z,20.37
2019-04-29T07:24:56.632Z,25.27
2019-04-29T07:27:30.308Z,27.70
2019-04-29T07:30:06.581Z,29.02
2019-04-29T07:32:42.018Z,30.12
2019-04-29T07:35:15.623Z,28.83
2019-04-29T07:37:49.819Z,30.73
2019-04-29T07:40:23.959Z,29.50
2019-04-29T07:43:02.892Z,30.00
2019-04-29T07:45:44.070Z,30.93
2019-04-29T07:48:12.895Z,30.15
2019-04-29T07:50:47.201Z,29.47
2019-04-29T07:53:26.925Z,28.33
2019-04-29T07:55:55.843Z,27.97
2019-04-29T07:58:29.794Z,28.07
2019-04-29T08:01:03.721Z,26.70
2019-04-29T08:03:38.440Z,27.10
2019-04-29T08:06:13.228Z,29.67
2019-04-29T08:08:54.834Z,29.63
2019-04-29T08:11:22.286Z,29.40
2019-04-29T08:13:56.562Z,30.93
2019-04-29T08:16:31.585Z,31.03
2019-04-29T08:19:07.110Z,29.33
2019-04-29T08:21:41.524Z,29.43
2019-04-29T08:24:15.768Z,30.17
2019-04-29T08:26:50.019Z,29.20
2019-04-29T08:29:25.276Z,29.80
2019-04-29T08:32:02.217Z,28.37
2019-04-29T08:34:34.777Z,31.00
2019-04-29T08:37:08.674Z,28.37
2019-04-29T08:39:42.340Z,29.65
2019-04-29T08:42:16.697Z,29.35
2019-04-29T08:44:50.332Z,29.93
2019-04-29T08:47:30.538Z,29.10
2019-04-29T08:49:59.416Z,30.05
2019-04-29T08:52:33.084Z,29.90
2019-04-29T08:55:07.878Z,30.52
2019-04-29T08:57:41.392Z,30.97
2019-04-29T09:00:15.539Z,31.20
2019-04-29T09:02:49.520Z,31.63
2019-04-29T09:05:23.072Z,31.07
2019-04-29T09:07:58.719Z,31.07
2019-04-29T09:10:32.963Z,29.63
2019-04-29T09:13:07.163Z,31.45
2019-04-29T09:15:40.900Z,31.10
2019-04-29T09:18:14.685Z,32.40
2019-04-29T09:20:48.573Z,29.83
2019-04-29T09:23:23.815Z,30.80
2019-04-29T09:26:02.948Z,31.97
2019-04-29T09:28:36.523Z,35.17
2019-04-29T09:31:14.365Z,35.48
2019-04-29T09:33:49.126Z,37.73
2019-04-29T09:36:23.337Z,36.97
2019-04-29T09:38:57.207Z,37.30
2019-04-29T09:41:35.063Z,38.10
2019-04-29T09:44:06.070Z,36.93
2019-04-29T09:46:39.880Z,37.77
2019-04-29T09:49:13.627Z,37.40
2019-04-29T09:51:49.269Z,40.00
2019-04-29T09:54:24.554Z,37.63
2019-04-29T09:56:58.455Z,39.23
2019-04-29T09:59:32.222Z,37.90
2019-04-29T10:02:06.202Z,35.80
2019-04-29T10:04:55.209Z,36.63
2019-04-29T10:07:18.664Z,35.43
2019-04-29T10:09:57.297Z,35.73
2019-04-29T10:12:27.820Z,35.10
2019-04-29T10:15:02.720Z,35.23
2019-04-29T10:17:36.948Z,34.30
2019-04-29T10:20:12.595Z,36.47
2019-04-29T10:22:50.227Z,35.67
2019-04-29T10:25:21.941Z,34.30
2019-04-29T10:27:55.892Z,33.67
2019-04-29T10:30:31.151Z,34.05
2019-04-29T10:33:05.683Z,34.33
2019-04-29T10:35:40.803Z,33.97
2019-04-29T10:38:16.795Z,33.70
2019-04-29T10:41:00.751Z,35.50
2019-04-29T10:43:35.822Z,34.37
2019-04-29T10:46:09.770Z,37.15
2019-04-29T10:48:43.749Z,37.43
2019-04-29T10:51:18.142Z,34.83
2019-04-29T10:53:52.692Z,35.43
2019-04-29T10:56:28.230Z,36.53
2019-04-29T10:59:04.498Z,35.07
2019-04-29T11:02:09.116Z,36.27
2019-04-29T11:04:38.409Z,38.30
2019-04-29T11:07:18.460Z,36.67
2019-04-29T11:09:50.908Z,37.83
2019-04-29T11:12:25.814Z,37.40
2019-04-29T11:15:01.794Z,37.48
2019-04-29T11:17:39.759Z,38.37
2019-04-29T11:20:15.912Z,36.77
2019-04-29T11:22:46.977Z,36.73
2019-04-29T11:25:21.755Z,37.97
2019-04-29T11:27:56.247Z,36.03
2019-04-29T11:30:37.490Z,37.08
2019-04-29T11:33:06.301Z,36.68
2019-04-29T11:35:41.620Z,37.73
2019-04-29T11:38:16.368Z,37.50
2019-04-29T11:40:52.541Z,37.27
2019-04-29T11:43:27.620Z,37.23
2019-04-29T11:46:04.875Z,37.57
2019-04-29T11:48:39.981Z,37.83
2019-04-29T11:51:14.463Z,37.23
2019-04-29T11:53:49.499Z,36.70
2019-04-29T11:56:31.531Z,35.13
2019-04-29T11:59:09.893Z,36.38
2019-04-29T12:01:51.642Z,35.77
2019-04-29T12:04:28.671Z,39.23
2019-04-29T12:07:01.733Z,36.83
2019-04-29T12:09:35.626Z,36.45
2019-04-29T12:12:12.899Z,37.27
2019-04-29T12:15:04.975Z,37.57
2019-04-29T12:17:39.604Z,37.67
2019-04-29T12:20:16.354Z,38.30
2019-04-29T12:22:50.555Z,38.13
2019-04-29T12:25:27.525Z,37.67
2019-04-29T12:28:01.869Z,39.13
2019-04-29T12:30:36.559Z,36.77
2019-04-29T12:33:17.530Z,36.10
2019-04-29T12:35:54.456Z,35.60
2019-04-29T12:38:39.410Z,35.97
2019-04-29T12:41:04.195Z,36.87
2019-04-29T12:43:39.411Z,36.38
2019-04-29T12:46:17.702Z,36.42
2019-04-29T12:48:54.028Z,34.43
2019-04-29T12:51:29.883Z,34.83
2019-04-29T12:54:11.638Z,34.03
2019-04-29T12:56:49.460Z,33.18
2019-04-29T12:59:24.792Z,32.83
2019-04-29T13:01:59.523Z,33.93
2019-04-29T13:04:37.496Z,32.53
2019-04-29T13:07:10.410Z,32.07
2019-04-29T13:09:48.418Z,31.97
2019-04-29T13:12:21.283Z,32.13
2019-04-29T13:15:03.014Z,31.57
2019-04-29T13:17:32.295Z,30.97
2019-04-29T13:20:11.630Z,31.87
2019-04-29T13:22:42.537Z,31.35
2019-04-29T13:25:20.823Z,31.27
2019-04-29T13:28:03.946Z,30.67
2019-04-29T13:30:34.287Z,31.02
2019-04-29T13:33:16.545Z,31.10
2019-04-29T13:35:49.710Z,30.93
2019-04-29T13:38:24.901Z,30.93
2019-04-29T13:41:13.094Z,31.03
2019-04-29T13:43:36.113Z,30.52
2019-04-29T13:46:10.808Z,30.75
2019-04-29T13:48:55.437Z,31.73
2019-04-29T13:51:35.233Z,31.17
2019-04-29T13:54:02.343Z,32.90
2019-04-29T13:56:54.559Z,31.10
2019-04-29T13:59:13.780Z,31.90
2019-04-29T14:01:59.913Z,31.42
2019-04-29T14:04:25.994Z,33.90
2019-04-29T14:07:08.041Z,33.58
2019-04-29T14:09:47.743Z,33.43
2019-04-29T14:14:58.589Z,33.20
2019-04-29T14:17:35.742Z,33.58
2019-04-29T14:20:15.802Z,33.37
2019-04-29T14:22:49.031Z,34.70
2019-04-29T14:25:23.762Z,34.23
2019-04-29T14:27:59.090Z,34.67
2019-04-29T14:30:38.945Z,34.70
2019-04-29T14:33:11.001Z,36.17
2019-04-29T14:35:48.234Z,36.33
2019-04-29T14:38:24.078Z,35.40
2019-04-29T14:40:56.581Z,35.77
2019-04-29T14:43:32.059Z,37.03
2019-04-29T14:46:05.880Z,35.87
2019-04-29T14:48:42.649Z,36.53
2019-04-29T14:51:14.852Z,37.17
2019-04-29T14:53:56.449Z,36.53
2019-04-29T14:56:25.370Z,37.33
2019-04-29T14:59:06.560Z,37.47
2019-04-29T15:01:35.954Z,38.33
2019-04-29T15:04:17.790Z,38.97
2019-04-29T15:06:45.538Z,37.55
2019-04-29T15:09:19.971Z,38.07
2019-04-29T15:11:53.803Z,35.90
2019-04-29T15:14:29.219Z,36.97
2019-04-29T15:17:03.101Z,36.23
2019-04-29T15:19:37.004Z,36.20
2019-04-29T15:22:10.998Z,36.50
2019-04-29T15:24:44.702Z,35.67
2019-04-29T15:27:18.877Z,34.70
2019-04-29T15:29:53.096Z,35.07
2019-04-29T15:32:28.597Z,34.17
2019-04-29T15:35:02.959Z,34.03
2019-04-29T15:37:36.751Z,33.85
2019-04-29T15:40:11.599Z,35.10
2019-04-29T15:42:49.108Z,33.92
2019-04-29T15:45:20.231Z,34.10
2019-04-29T15:47:54.494Z,34.10
2019-04-29T15:50:32.523Z,34.10
2019-04-29T15:53:06.181Z,32.97
2019-04-29T15:55:41.292Z,32.97
2019-04-29T15:58:22.436Z,31.90
2019-04-29T16:00:52.912Z,32.83
2019-04-29T16:03:27.008Z,33.17
2019-04-29T16:06:19.924Z,32.13
2019-04-29T16:08:41.193Z,31.30
2019-04-29T16:11:16.967Z,29.87
2019-04-29T16:14:08.299Z,30.13
2019-04-29T16:16:25.446Z,29.93
2019-04-29T16:19:07.298Z,30.60
2019-04-29T16:21:39.270Z,31.27
2019-04-29T16:24:25.990Z,30.77
2019-04-29T16:26:45.991Z,30.50
2019-04-29T16:29:19.807Z,31.13
2019-04-29T16:31:54.903Z,29.93
2019-04-29T16:34:28.692Z,31.13
2019-04-29T16:37:03.157Z,29.50
2019-04-29T16:39:38.917Z,29.57
2019-04-29T16:42:12.792Z,28.03
2019-04-29T16:44:46.803Z,25.93
2019-04-29T16:47:20.500Z,25.43
2019-04-29T16:49:57.544Z,25.73
2019-04-29T16:52:29.058Z,26.70
2019-04-29T16:55:05.848Z,24.63
2019-04-29T16:57:40.728Z,24.92
2019-04-29T17:00:18.299Z,24.80
2019-04-29T17:02:52.041Z,25.03
2019-04-29T17:05:25.712Z,24.77
2019-04-29T17:07:59.940Z,24.10
2019-04-29T17:10:34.874Z,25.95
2019-04-29T17:13:09.092Z,25.08
2019-04-29T17:15:44.623Z,25.30
2019-04-29T17:18:20.921Z,26.60
2019-04-29T17:21:04.615Z,26.73
2019-04-29T17:23:29.645Z,25.67
2019-04-29T17:26:03.996Z,26.07
2019-04-29T17:28:37.589Z,26.40
2019-04-29T17:31:12.848Z,25.97
2019-04-29T17:33:50.032Z,26.45
2019-04-29T17:36:23.882Z,26.50
2019-04-29T17:38:56.682Z,26.33
2019-04-29T17:41:30.404Z,26.27
2019-04-29T17:44:04.160Z,27.58
2019-04-29T17:46:38.030Z,26.77
2019-04-29T17:49:11.574Z,27.82
2019-04-29T17:51:45.932Z,26.37
2019-04-29T17:54:21.407Z,26.30
2019-04-29T17:57:15.356Z,25.30
2019-04-29T17:59:30.821Z,25.13
2019-04-29T18:02:05.381Z,24.00
2019-04-29T18:04:39.221Z,24.95
2019-04-29T18:07:14.704Z,23.33
2019-04-29T18:09:48.513Z,22.93
2019-04-29T18:12:22.155Z,25.43
2019-04-29T18:14:56.102Z,23.87
2019-04-29T18:17:31.310Z,24.57
2019-04-29T18:20:07.070Z,25.00
2019-04-29T18:22:40.478Z,25.67
2019-04-29T18:25:16.363Z,24.70
2019-04-29T18:27:53.167Z,24.90
2019-04-29T18:30:35.398Z,24.97
2019-04-29T18:33:00.455Z,26.27
2019-04-29T18:35:35.802Z,25.15
2019-04-29T18:38:11.974Z,25.88
2019-04-29T18:40:46.380Z,26.77
2019-04-29T18:43:22.845Z,25.93
2019-04-29T18:45:58.733Z,27.47
2019-04-29T18:48:29.670Z,27.90
2019-04-29T18:51:03.434Z,27.17
2019-04-29T18:53:37.132Z,26.80
2019-04-29T18:56:10.784Z,27.55
2019-04-29T18:58:46.864Z,28.03
2019-04-29T19:01:19.720Z,28.10
2019-04-29T19:03:55.631Z,28.05
2019-04-29T19:06:28.949Z,28.57
2019-04-29T19:09:02.958Z,28.83
2019-04-29T19:11:37.178Z,29.50
2019-04-29T19:14:11.596Z,27.95
2019-04-29T19:16:45.902Z,27.87
2019-04-29T19:19:21.051Z,27.75
2019-04-29T19:21:55.935Z,27.80
2019-04-29T19:24:31.434Z,27.25
2019-04-29T19:27:09.151Z,28.33
2019-04-29T19:29:43.238Z,28.60
2019-04-29T19:32:18.914Z,27.90
2019-04-29T19:34:50.040Z,26.80
2019-04-29T19:37:27.133Z,28.13
2019-04-29T19:40:00.095Z,26.63
2019-04-29T19:42:35.926Z,27.80
2019-04-29T19:45:13.360Z,27.73
2019-04-29T19:47:47.056Z,26.63
2019-04-29T19:50:19.713Z,27.20
2019-04-29T19:52:55.442Z,26.93
2019-04-29T19:55:33.327Z,26.30
2019-04-29T19:58:07.271Z,27.40
2019-04-29T20:00:40.740Z,27.27
2019-04-29T20:03:23.036Z,25.83
2019-04-29T20:05:50.319Z,27.17
2019-04-29T20:08:46.368Z,26.60
2019-04-29T20:11:11.425Z,26.27
2019-04-29T20:13:36.404Z,27.23
2019-04-29T20:16:12.785Z,27.67
2019-04-29T20:18:58.425Z,26.37
2019-04-29T20:21:24.669Z,25.83
2019-04-29T20:23:53.647Z,26.50
2019-04-29T20:26:29.688Z,26.00
2019-04-29T20:29:02.352Z,26.67
2019-04-29T20:31:38.868Z,27.07
2019-04-29T20:34:11.258Z,27.00
2019-04-29T20:36:45.724Z,26.27
2019-04-29T20:39:23.213Z,26.90
2019-04-29T20:41:56.434Z,25.70
2019-04-29T20:44:30.587Z,25.80
2019-04-29T20:47:19.772Z,26.50
2019-04-29T20:49:39.908Z,26.70
2019-04-29T20:52:20.353Z,27.87
2019-04-29T20:54:57.765Z,26.93
2019-04-29T20:57:27.725Z,28.13
2019-04-29T21:00:02.380Z,27.03
2019-04-29T21:02:37.445Z,25.93
2019-04-29T21:05:19.604Z,27.44
2019-04-29T21:07:49.086Z,27.93
2019-04-29T21:10:21.570Z,26.97
2019-04-29T21:12:55.756Z,26.93
2019-04-29T21:15:29.530Z,26.80
2019-04-29T21:18:05.427Z,26.43
2019-04-29T21:20:39.264Z,26.97
2019-04-29T21:23:12.865Z,26.27
2019-04-29T21:25:46.612Z,26.93
2019-04-29T21:28:20.752Z,27.03
2019-04-29T21:30:56.706Z,26.73
2019-04-29T21:33:31.250Z,27.13
2019-04-29T21:36:05.339Z,27.03
2019-04-29T21:38:39.288Z,27.30
2019-04-29T21:41:15.493Z,28.00
2019-04-29T21:43:53.403Z,27.10
2019-04-29T21:46:27.798Z,27.13
2019-04-29T21:48:59.762Z,27.87
2019-04-29T21:51:35.418Z,27.83
2019-04-29T21:54:14.262Z,27.00
2019-04-29T21:56:47.781Z,28.25
2019-04-29T21:59:22.019Z,29.83
2019-04-29T22:01:56.214Z,27.97
2019-04-29T22:04:32.833Z,27.80
2019-04-29T22:07:07.971Z,26.93
2019-04-29T22:09:44.759Z,28.03
2019-04-29T22:12:20.128Z,28.43
2019-04-29T22:14:53.948Z,28.00
2019-04-29T22:17:32.964Z,28.77
2019-04-29T22:20:03.904Z,28.20
2019-04-29T22:22:37.151Z,27.45
2019-04-29T22:25:11.641Z,28.00
2019-04-29T22:27:45.412Z,27.33
2019-04-29T22:30:19.995Z,27.43
2019-04-29T22:32:56.145Z,27.87
2019-04-29T22:35:32.862Z,27.33
2019-04-29T22:38:12.081Z,27.57
2019-04-29T22:40:42.933Z,28.25
2019-04-29T22:43:16.760Z,27.27
2019-04-29T22:45:50.772Z,28.53
2019-04-29T22:48:25.044Z,28.02
2019-04-29T22:50:58.847Z,26.90
2019-04-29T22:53:32.583Z,28.70
2019-04-29T22:56:08.963Z,28.54
2019-04-29T22:58:43.848Z,28.57
2019-04-29T23:01:17.857Z,27.30
2019-04-29T23:03:51.717Z,27.07
2019-04-29T23:06:25.896Z,28.67
2019-04-29T23:09:00.175Z,27.40
2019-04-29T23:11:34.795Z,26.90
2019-04-29T23:14:10.047Z,27.07
2019-04-29T23:16:45.467Z,27.97
2019-04-29T23:19:19.570Z,27.90
2019-04-29T23:21:53.079Z,27.13
2019-04-29T23:24:29.096Z,27.50
2019-04-29T23:27:06.087Z,28.77
2019-04-29T23:29:43.283Z,27.97
2019-04-29T23:32:16.159Z,27.70
2019-04-29T23:34:49.993Z,27.10
2019-04-29T23:37:27.142Z,26.80
2019-04-29T23:39:58.607Z,26.83
2019-04-29T23:42:32.494Z,26.13
2019-04-29T23:45:07.650Z,25.20
2019-04-29T23:47:41.814Z,25.63
2019-04-29T23:50:18.782Z,28.00
2019-04-29T23:52:52.052Z,23.95
2019-04-29T23:55:29.120Z,25.88
2019-04-29T23:58:03.672Z,25.95
